sensor_id;sensor_type;location;lat;lon;timestamp;P1;durP1;ratioP1;P2;durP2;ratioP2
1204;SDS011;592;48.764;9.174;2022-10-03T00:01:30;4.77;;;2.67;;
1204;SDS011;592;48.764;9.174;2022-10-03T00:04:14;5.70;;;3.00;;
1204;SDS011;592;48.764;9.174;2022-10-03T00:06:54;9.17;;;3.47;;
1204;SDS011;592;48.764;9.174;2022-10-03T00:09:31;4.93;;;2.93;;
1204;SDS011;592;48.764;9.174;2022-10-03T00:12:11;6.77;;;3.93;;
1204;SDS011;592;48.764;9.174;2022-10-03T00:14:45;4.80;;;3.10;;
1204;SDS011;592;48.764;9.174;2022-10-03T00:17:20;5.80;;;3.33;;
1204;SDS011;592;48.764;9.174;2022-10-03T00:19:54;6.87;;;4.37;;
1204;SDS011;592;48.764;9.174;2022-10-03T00:22:33;8.00;;;4.13;;
1204;SDS011;592;48.764;9.174;2022-10-03T00:25:14;9.53;;;4.30;;
1204;SDS011;592;48.764;9.174;2022-10-03T00:27:53;7.70;;;3.80;;
1204;SDS011;592;48.764;9.174;2022-10-03T00:30:40;9.53;;;4.50;;
1204;SDS011;592;48.764;9.174;2022-10-03T00:33:18;8.73;;;4.47;;
1204;SDS011;592;48.764;9.174;2022-10-03T00:35:59;9.97;;;4.80;;
1204;SDS011;592;48.764;9.174;2022-10-03T00:41:47;6.47;;;4.13;;
1204;SDS011;592;48.764;9.174;2022-10-03T00:44:40;7.10;;;3.57;;
1204;SDS011;592;48.764;9.174;2022-10-03T00:47:53;7.70;;;4.30;;
1204;SDS011;592;48.764;9.174;2022-10-03T00:50:39;6.00;;;4.00;;
1204;SDS011;592;48.764;9.174;2022-10-03T00:53:16;8.90;;;4.50;;
1204;SDS011;592;48.764;9.174;2022-10-03T00:56:00;5.30;;;3.80;;
1204;SDS011;592;48.764;9.174;2022-10-03T00:58:41;8.70;;;4.60;;
1204;SDS011;592;48.764;9.174;2022-10-03T01:01:21;8.50;;;5.37;;
1204;SDS011;592;48.764;9.174;2022-10-03T01:03:56;8.23;;;4.97;;
1204;SDS011;592;48.764;9.174;2022-10-03T01:06:32;8.57;;;4.67;;
1204;SDS011;592;48.764;9.174;2022-10-03T01:09:19;6.90;;;4.47;;
1204;SDS011;592;48.764;9.174;2022-10-03T01:12:11;7.33;;;4.80;;
1204;SDS011;592;48.764;9.174;2022-10-03T01:14:53;7.00;;;4.77;;
1204;SDS011;592;48.764;9.174;2022-10-03T01:17:35;7.13;;;5.30;;
1204;SDS011;592;48.764;9.174;2022-10-03T01:20:17;7.40;;;5.00;;
1204;SDS011;592;48.764;9.174;2022-10-03T01:23:01;10.80;;;5.67;;
1204;SDS011;592;48.764;9.174;2022-10-03T01:25:48;7.80;;;5.80;;
1204;SDS011;592;48.764;9.174;2022-10-03T01:28:25;8.13;;;5.67;;
1204;SDS011;592;48.764;9.174;2022-10-03T01:31:22;11.00;;;6.07;;
1204;SDS011;592;48.764;9.174;2022-10-03T01:33:54;10.60;;;5.27;;
1204;SDS011;592;48.764;9.174;2022-10-03T01:36:30;13.47;;;6.27;;
1204;SDS011;592;48.764;9.174;2022-10-03T01:39:05;10.80;;;6.30;;
1204;SDS011;592;48.764;9.174;2022-10-03T01:41:41;8.50;;;6.00;;
1204;SDS011;592;48.764;9.174;2022-10-03T01:44:17;7.70;;;5.87;;
1204;SDS011;592;48.764;9.174;2022-10-03T01:46:49;10.37;;;5.30;;
1204;SDS011;592;48.764;9.174;2022-10-03T01:49:20;6.93;;;4.63;;
1204;SDS011;592;48.764;9.174;2022-10-03T01:51:53;7.90;;;5.70;;
1204;SDS011;592;48.764;9.174;2022-10-03T01:54:28;7.80;;;5.10;;
1204;SDS011;592;48.764;9.174;2022-10-03T01:57:00;8.37;;;5.90;;
1204;SDS011;592;48.764;9.174;2022-10-03T01:59:38;9.90;;;6.07;;
1204;SDS011;592;48.764;9.174;2022-10-03T02:02:13;8.80;;;5.20;;
1204;SDS011;592;48.764;9.174;2022-10-03T02:04:47;11.60;;;5.37;;
1204;SDS011;592;48.764;9.174;2022-10-03T02:07:23;9.53;;;5.40;;
1204;SDS011;592;48.764;9.174;2022-10-03T02:10:02;11.03;;;5.97;;
1204;SDS011;592;48.764;9.174;2022-10-03T02:12:35;9.47;;;6.40;;
1204;SDS011;592;48.764;9.174;2022-10-03T02:15:12;8.13;;;6.13;;
1204;SDS011;592;48.764;9.174;2022-10-03T02:17:45;8.10;;;5.43;;
1204;SDS011;592;48.764;9.174;2022-10-03T02:20:22;13.50;;;5.97;;
1204;SDS011;592;48.764;9.174;2022-10-03T02:22:54;11.13;;;6.30;;
1204;SDS011;592;48.764;9.174;2022-10-03T02:25:24;7.70;;;5.80;;
1204;SDS011;592;48.764;9.174;2022-10-03T02:34:14;10.40;;;5.93;;
1204;SDS011;592;48.764;9.174;2022-10-03T02:36:55;12.57;;;7.13;;
1204;SDS011;592;48.764;9.174;2022-10-03T02:39:47;9.97;;;6.60;;
1204;SDS011;592;48.764;9.174;2022-10-03T02:42:40;11.03;;;6.47;;
1204;SDS011;592;48.764;9.174;2022-10-03T02:45:45;11.80;;;7.10;;
1204;SDS011;592;48.764;9.174;2022-10-03T02:48:45;13.60;;;6.70;;
1204;SDS011;592;48.764;9.174;2022-10-03T02:54:35;12.17;;;7.33;;
1204;SDS011;592;48.764;9.174;2022-10-03T03:00:33;9.57;;;6.60;;
1204;SDS011;592;48.764;9.174;2022-10-03T03:12:23;7.90;;;5.70;;
1204;SDS011;592;48.764;9.174;2022-10-03T03:18:12;11.00;;;7.13;;
1204;SDS011;592;48.764;9.174;2022-10-03T03:20:50;10.27;;;6.63;;
1204;SDS011;592;48.764;9.174;2022-10-03T03:23:30;10.50;;;6.90;;
1204;SDS011;592;48.764;9.174;2022-10-03T03:26:27;11.63;;;6.93;;
1204;SDS011;592;48.764;9.174;2022-10-03T03:29:08;10.00;;;6.80;;
1204;SDS011;592;48.764;9.174;2022-10-03T03:31:48;12.43;;;7.83;;
1204;SDS011;592;48.764;9.174;2022-10-03T03:34:28;10.80;;;7.27;;
1204;SDS011;592;48.764;9.174;2022-10-03T03:37:02;12.60;;;7.40;;
1204;SDS011;592;48.764;9.174;2022-10-03T03:39:38;11.03;;;7.60;;
1204;SDS011;592;48.764;9.174;2022-10-03T03:42:32;10.10;;;7.30;;
1204;SDS011;592;48.764;9.174;2022-10-03T03:45:24;10.40;;;6.73;;
1204;SDS011;592;48.764;9.174;2022-10-03T03:48:14;12.87;;;7.60;;
1204;SDS011;592;48.764;9.174;2022-10-03T03:51:01;17.30;;;7.37;;
1204;SDS011;592;48.764;9.174;2022-10-03T03:53:53;10.23;;;7.50;;
1204;SDS011;592;48.764;9.174;2022-10-03T04:02:34;10.60;;;6.93;;
1204;SDS011;592;48.764;9.174;2022-10-03T04:05:30;11.60;;;7.53;;
1204;SDS011;592;48.764;9.174;2022-10-03T04:08:16;11.53;;;7.27;;
1204;SDS011;592;48.764;9.174;2022-10-03T04:11:01;14.80;;;7.70;;
1204;SDS011;592;48.764;9.174;2022-10-03T04:13:45;12.43;;;7.90;;
1204;SDS011;592;48.764;9.174;2022-10-03T04:16:30;13.53;;;7.57;;
1204;SDS011;592;48.764;9.174;2022-10-03T04:19:37;11.60;;;8.30;;
1204;SDS011;592;48.764;9.174;2022-10-03T04:22:23;18.07;;;8.37;;
1204;SDS011;592;48.764;9.174;2022-10-03T04:25:06;13.00;;;8.40;;
1204;SDS011;592;48.764;9.174;2022-10-03T04:27:48;11.10;;;7.60;;
1204;SDS011;592;48.764;9.174;2022-10-03T04:30:44;14.63;;;7.87;;
1204;SDS011;592;48.764;9.174;2022-10-03T04:33:24;12.03;;;8.10;;
1204;SDS011;592;48.764;9.174;2022-10-03T04:39:04;13.77;;;7.73;;
1204;SDS011;592;48.764;9.174;2022-10-03T04:41:38;12.90;;;8.03;;
1204;SDS011;592;48.764;9.174;2022-10-03T04:44:15;11.57;;;7.60;;
1204;SDS011;592;48.764;9.174;2022-10-03T04:46:53;13.00;;;7.70;;
1204;SDS011;592;48.764;9.174;2022-10-03T04:49:27;14.20;;;8.10;;
1204;SDS011;592;48.764;9.174;2022-10-03T04:52:01;13.80;;;9.00;;
1204;SDS011;592;48.764;9.174;2022-10-03T04:54:35;15.23;;;9.20;;
1204;SDS011;592;48.764;9.174;2022-10-03T04:57:16;15.93;;;9.03;;
1204;SDS011;592;48.764;9.174;2022-10-03T04:59:51;12.90;;;9.50;;
1204;SDS011;592;48.764;9.174;2022-10-03T05:02:30;13.80;;;8.80;;
1204;SDS011;592;48.764;9.174;2022-10-03T05:05:13;16.57;;;8.43;;
1204;SDS011;592;48.764;9.174;2022-10-03T05:07:52;13.07;;;9.20;;
1204;SDS011;592;48.764;9.174;2022-10-03T05:10:48;12.90;;;8.90;;
1204;SDS011;592;48.764;9.174;2022-10-03T05:13:34;16.43;;;9.47;;
1204;SDS011;592;48.764;9.174;2022-10-03T05:16:14;14.73;;;8.90;;
1204;SDS011;592;48.764;9.174;2022-10-03T05:18:49;14.30;;;8.60;;
1204;SDS011;592;48.764;9.174;2022-10-03T05:21:23;15.70;;;9.60;;
1204;SDS011;592;48.764;9.174;2022-10-03T05:24:00;13.90;;;9.20;;
1204;SDS011;592;48.764;9.174;2022-10-03T05:26:40;15.13;;;8.50;;
1204;SDS011;592;48.764;9.174;2022-10-03T05:29:18;13.30;;;8.60;;
1204;SDS011;592;48.764;9.174;2022-10-03T05:31:54;16.33;;;8.73;;
1204;SDS011;592;48.764;9.174;2022-10-03T05:34:32;13.80;;;8.50;;
1204;SDS011;592;48.764;9.174;2022-10-03T05:37:17;17.60;;;10.00;;
1204;SDS011;592;48.764;9.174;2022-10-03T05:40:05;13.63;;;9.23;;
1204;SDS011;592;48.764;9.174;2022-10-03T05:42:45;13.03;;;8.40;;
1204;SDS011;592;48.764;9.174;2022-10-03T05:45:27;15.17;;;8.57;;
1204;SDS011;592;48.764;9.174;2022-10-03T05:48:06;16.83;;;8.90;;
1204;SDS011;592;48.764;9.174;2022-10-03T05:56:50;15.67;;;9.00;;
1204;SDS011;592;48.764;9.174;2022-10-03T05:59:34;15.70;;;11.23;;
1204;SDS011;592;48.764;9.174;2022-10-03T06:02:23;18.93;;;10.97;;
1204;SDS011;592;48.764;9.174;2022-10-03T06:05:23;24.00;;;12.23;;
1204;SDS011;592;48.764;9.174;2022-10-03T06:10:53;20.13;;;12.00;;
1204;SDS011;592;48.764;9.174;2022-10-03T06:13:33;26.40;;;13.00;;
1204;SDS011;592;48.764;9.174;2022-10-03T06:16:15;17.20;;;12.07;;
1204;SDS011;592;48.764;9.174;2022-10-03T06:19:05;16.93;;;11.30;;
1204;SDS011;592;48.764;9.174;2022-10-03T06:21:48;22.40;;;13.10;;
1204;SDS011;592;48.764;9.174;2022-10-03T06:28:02;22.37;;;14.37;;
1204;SDS011;592;48.764;9.174;2022-10-03T06:31:04;22.10;;;13.37;;
1204;SDS011;592;48.764;9.174;2022-10-03T06:34:06;23.83;;;13.00;;
1204;SDS011;592;48.764;9.174;2022-10-03T06:36:51;21.33;;;14.13;;
1204;SDS011;592;48.764;9.174;2022-10-03T06:40:05;21.37;;;13.40;;
1204;SDS011;592;48.764;9.174;2022-10-03T06:42:55;22.20;;;14.33;;
1204;SDS011;592;48.764;9.174;2022-10-03T06:45:57;22.83;;;15.20;;
1204;SDS011;592;48.764;9.174;2022-10-03T06:48:55;24.17;;;12.63;;
1204;SDS011;592;48.764;9.174;2022-10-03T06:51:57;22.57;;;13.30;;
1204;SDS011;592;48.764;9.174;2022-10-03T06:58:00;22.67;;;13.50;;
1204;SDS011;592;48.764;9.174;2022-10-03T07:00:53;25.40;;;13.73;;
1204;SDS011;592;48.764;9.174;2022-10-03T07:06:50;25.23;;;15.60;;
1204;SDS011;592;48.764;9.174;2022-10-03T07:09:42;25.40;;;14.20;;
1204;SDS011;592;48.764;9.174;2022-10-03T07:15:29;25.10;;;14.50;;
1204;SDS011;592;48.764;9.174;2022-10-03T07:18:21;23.53;;;14.10;;
1204;SDS011;592;48.764;9.174;2022-10-03T07:21:26;26.43;;;14.37;;
1204;SDS011;592;48.764;9.174;2022-10-03T07:24:32;24.33;;;13.43;;
1204;SDS011;592;48.764;9.174;2022-10-03T07:27:22;24.50;;;13.97;;
1204;SDS011;592;48.764;9.174;2022-10-03T07:30:07;24.07;;;14.80;;
1204;SDS011;592;48.764;9.174;2022-10-03T07:32:50;26.03;;;15.47;;
1204;SDS011;592;48.764;9.174;2022-10-03T07:35:49;27.53;;;15.37;;
1204;SDS011;592;48.764;9.174;2022-10-03T07:41:39;27.50;;;16.60;;
1204;SDS011;592;48.764;9.174;2022-10-03T07:47:37;26.30;;;15.27;;
1204;SDS011;592;48.764;9.174;2022-10-03T07:53:39;29.60;;;15.50;;
1204;SDS011;592;48.764;9.174;2022-10-03T07:56:56;26.03;;;15.40;;
1204;SDS011;592;48.764;9.174;2022-10-03T07:59:50;33.60;;;15.63;;
1204;SDS011;592;48.764;9.174;2022-10-03T08:03:01;26.37;;;14.87;;
1204;SDS011;592;48.764;9.174;2022-10-03T08:06:05;32.97;;;14.90;;
1204;SDS011;592;48.764;9.174;2022-10-03T08:14:55;23.27;;;14.90;;
1204;SDS011;592;48.764;9.174;2022-10-03T08:17:45;25.93;;;14.93;;
1204;SDS011;592;48.764;9.174;2022-10-03T08:20:49;24.03;;;15.30;;
1204;SDS011;592;48.764;9.174;2022-10-03T08:23:30;20.90;;;14.23;;
1204;SDS011;592;48.764;9.174;2022-10-03T08:26:18;25.37;;;16.00;;
1204;SDS011;592;48.764;9.174;2022-10-03T08:28:57;30.30;;;15.57;;
1204;SDS011;592;48.764;9.174;2022-10-03T08:38:05;25.17;;;13.80;;
1204;SDS011;592;48.764;9.174;2022-10-03T08:47:03;21.90;;;13.10;;
1204;SDS011;592;48.764;9.174;2022-10-03T08:52:58;26.20;;;12.73;;
1204;SDS011;592;48.764;9.174;2022-10-03T08:55:48;21.30;;;11.83;;
1204;SDS011;592;48.764;9.174;2022-10-03T09:01:21;18.60;;;12.40;;
1204;SDS011;592;48.764;9.174;2022-10-03T09:07:20;20.53;;;11.67;;
1204;SDS011;592;48.764;9.174;2022-10-03T09:10:04;18.00;;;11.57;;
1204;SDS011;592;48.764;9.174;2022-10-03T09:13:07;18.20;;;11.80;;
1204;SDS011;592;48.764;9.174;2022-10-03T09:19:07;25.23;;;12.57;;
1204;SDS011;592;48.764;9.174;2022-10-03T09:21:55;20.67;;;11.60;;
1204;SDS011;592;48.764;9.174;2022-10-03T09:30:54;13.93;;;9.93;;
1204;SDS011;592;48.764;9.174;2022-10-03T09:39:42;18.93;;;10.40;;
1204;SDS011;592;48.764;9.174;2022-10-03T09:45:54;16.70;;;9.20;;
1204;SDS011;592;48.764;9.174;2022-10-03T09:48:43;17.17;;;8.30;;
1204;SDS011;592;48.764;9.174;2022-10-03T09:51:33;12.87;;;7.97;;
1204;SDS011;592;48.764;9.174;2022-10-03T09:54:19;13.57;;;9.13;;
1204;SDS011;592;48.764;9.174;2022-10-03T09:57:17;17.43;;;8.70;;
1204;SDS011;592;48.764;9.174;2022-10-03T10:00:13;15.70;;;8.97;;
1204;SDS011;592;48.764;9.174;2022-10-03T10:02:56;21.80;;;9.00;;
1204;SDS011;592;48.764;9.174;2022-10-03T10:08:44;15.07;;;7.83;;
1204;SDS011;592;48.764;9.174;2022-10-03T10:11:47;13.70;;;8.30;;
1204;SDS011;592;48.764;9.174;2022-10-03T10:14:51;21.10;;;8.53;;
1204;SDS011;592;48.764;9.174;2022-10-03T10:24:08;15.83;;;8.33;;
1204;SDS011;592;48.764;9.174;2022-10-03T10:27:06;13.40;;;7.03;;
1204;SDS011;592;48.764;9.174;2022-10-03T10:30:08;14.20;;;8.03;;
1204;SDS011;592;48.764;9.174;2022-10-03T10:36:09;12.53;;;7.50;;
1204;SDS011;592;48.764;9.174;2022-10-03T10:42:30;14.27;;;7.83;;
1204;SDS011;592;48.764;9.174;2022-10-03T10:45:42;11.00;;;7.00;;
1204;SDS011;592;48.764;9.174;2022-10-03T10:54:51;12.20;;;7.00;;
1204;SDS011;592;48.764;9.174;2022-10-03T10:57:51;13.07;;;7.47;;
1204;SDS011;592;48.764;9.174;2022-10-03T11:00:48;15.70;;;6.80;;
1204;SDS011;592;48.764;9.174;2022-10-03T11:10:03;14.77;;;7.30;;
1204;SDS011;592;48.764;9.174;2022-10-03T11:13:07;14.03;;;8.47;;
1204;SDS011;592;48.764;9.174;2022-10-03T11:16:15;14.60;;;7.43;;
1204;SDS011;592;48.764;9.174;2022-10-03T11:19:19;12.03;;;7.57;;
1204;SDS011;592;48.764;9.174;2022-10-03T11:28:37;13.80;;;7.40;;
1204;SDS011;592;48.764;9.174;2022-10-03T11:37:42;15.00;;;7.57;;
1204;SDS011;592;48.764;9.174;2022-10-03T11:40:22;13.03;;;7.30;;
1204;SDS011;592;48.764;9.174;2022-10-03T11:43:16;15.63;;;6.80;;
1204;SDS011;592;48.764;9.174;2022-10-03T11:46:01;10.23;;;6.27;;
1204;SDS011;592;48.764;9.174;2022-10-03T11:48:45;16.63;;;6.60;;
1204;SDS011;592;48.764;9.174;2022-10-03T11:51:17;11.83;;;6.00;;
1204;SDS011;592;48.764;9.174;2022-10-03T11:53:52;13.23;;;5.90;;
1204;SDS011;592;48.764;9.174;2022-10-03T11:56:35;11.90;;;6.13;;
1204;SDS011;592;48.764;9.174;2022-10-03T11:59:14;12.87;;;6.07;;
1204;SDS011;592;48.764;9.174;2022-10-03T12:01:59;10.30;;;6.80;;
1204;SDS011;592;48.764;9.174;2022-10-03T12:04:38;12.03;;;5.17;;
1204;SDS011;592;48.764;9.174;2022-10-03T12:07:17;10.23;;;5.70;;
1204;SDS011;592;48.764;9.174;2022-10-03T12:10:17;12.00;;;6.07;;
1204;SDS011;592;48.764;9.174;2022-10-03T12:12:54;9.87;;;4.83;;
1204;SDS011;592;48.764;9.174;2022-10-03T12:15:26;8.50;;;4.40;;
1204;SDS011;592;48.764;9.174;2022-10-03T12:18:01;8.90;;;3.93;;
1204;SDS011;592;48.764;9.174;2022-10-03T12:23:40;8.27;;;4.20;;
1204;SDS011;592;48.764;9.174;2022-10-03T12:26:36;8.03;;;4.77;;
1204;SDS011;592;48.764;9.174;2022-10-03T12:29:09;10.20;;;4.37;;
1204;SDS011;592;48.764;9.174;2022-10-03T12:31:40;12.07;;;4.80;;
1204;SDS011;592;48.764;9.174;2022-10-03T12:34:21;9.87;;;5.00;;
1204;SDS011;592;48.764;9.174;2022-10-03T12:37:05;11.90;;;4.80;;
1204;SDS011;592;48.764;9.174;2022-10-03T12:39:44;11.07;;;4.80;;
1204;SDS011;592;48.764;9.174;2022-10-03T12:42:23;9.52;;;5.07;;
1204;SDS011;592;48.764;9.174;2022-10-03T12:44:55;13.60;;;5.60;;
1204;SDS011;592;48.764;9.174;2022-10-03T12:47:29;10.95;;;5.20;;
1204;SDS011;592;48.764;9.174;2022-10-03T12:50:13;7.77;;;4.90;;
1204;SDS011;592;48.764;9.174;2022-10-03T12:52:52;10.60;;;4.80;;
1204;SDS011;592;48.764;9.174;2022-10-03T12:55:30;13.60;;;4.93;;
1204;SDS011;592;48.764;9.174;2022-10-03T12:58:01;12.20;;;5.40;;
1204;SDS011;592;48.764;9.174;2022-10-03T13:00:32;8.00;;;4.60;;
1204;SDS011;592;48.764;9.174;2022-10-03T13:08:52;10.57;;;5.07;;
1204;SDS011;592;48.764;9.174;2022-10-03T13:11:30;8.73;;;4.90;;
1204;SDS011;592;48.764;9.174;2022-10-03T13:14:05;11.30;;;5.23;;
1204;SDS011;592;48.764;9.174;2022-10-03T13:16:42;9.50;;;4.60;;
1204;SDS011;592;48.764;9.174;2022-10-03T13:19:20;9.43;;;4.53;;
1204;SDS011;592;48.764;9.174;2022-10-03T13:21:54;8.70;;;4.27;;
1204;SDS011;592;48.764;9.174;2022-10-03T13:24:31;9.37;;;4.57;;
1204;SDS011;592;48.764;9.174;2022-10-03T13:27:08;9.37;;;5.10;;
1204;SDS011;592;48.764;9.174;2022-10-03T13:29:44;11.97;;;4.50;;
1204;SDS011;592;48.764;9.174;2022-10-03T13:32:16;8.90;;;4.50;;
1204;SDS011;592;48.764;9.174;2022-10-03T13:34:56;8.80;;;4.60;;
1204;SDS011;592;48.764;9.174;2022-10-03T13:37:57;9.10;;;5.03;;
1204;SDS011;592;48.764;9.174;2022-10-03T13:40:31;10.37;;;5.20;;
1204;SDS011;592;48.764;9.174;2022-10-03T13:43:01;7.30;;;4.40;;
1204;SDS011;592;48.764;9.174;2022-10-03T13:45:35;10.80;;;5.10;;
1204;SDS011;592;48.764;9.174;2022-10-03T13:48:09;12.77;;;5.10;;
1204;SDS011;592;48.764;9.174;2022-10-03T13:50:41;7.40;;;4.10;;
1204;SDS011;592;48.764;9.174;2022-10-03T13:53:18;7.47;;;4.00;;
1204;SDS011;592;48.764;9.174;2022-10-03T13:56:06;8.27;;;4.20;;
1204;SDS011;592;48.764;9.174;2022-10-03T13:58:39;8.37;;;4.53;;
1204;SDS011;592;48.764;9.174;2022-10-03T14:01:18;9.00;;;4.80;;
1204;SDS011;592;48.764;9.174;2022-10-03T14:07:08;7.70;;;4.10;;
1204;SDS011;592;48.764;9.174;2022-10-03T14:09:46;6.07;;;3.70;;
1204;SDS011;592;48.764;9.174;2022-10-03T14:12:29;9.13;;;4.13;;
1204;SDS011;592;48.764;9.174;2022-10-03T14:15:07;7.40;;;4.50;;
1204;SDS011;592;48.764;9.174;2022-10-03T14:17:45;11.00;;;4.33;;
1204;SDS011;592;48.764;9.174;2022-10-03T14:20:23;7.87;;;4.50;;
1204;SDS011;592;48.764;9.174;2022-10-03T14:23:04;8.67;;;4.40;;
1204;SDS011;592;48.764;9.174;2022-10-03T14:25:39;8.83;;;4.60;;
1204;SDS011;592;48.764;9.174;2022-10-03T14:28:11;10.63;;;4.20;;
1204;SDS011;592;48.764;9.174;2022-10-03T14:30:46;8.87;;;4.50;;
1204;SDS011;592;48.764;9.174;2022-10-03T14:33:21;12.63;;;4.33;;
1204;SDS011;592;48.764;9.174;2022-10-03T14:35:59;7.23;;;4.60;;
1204;SDS011;592;48.764;9.174;2022-10-03T14:38:37;6.60;;;3.50;;
1204;SDS011;592;48.764;9.174;2022-10-03T14:41:26;8.80;;;4.43;;
1204;SDS011;592;48.764;9.174;2022-10-03T14:44:14;5.50;;;3.77;;
1204;SDS011;592;48.764;9.174;2022-10-03T14:46:49;8.50;;;3.57;;
1204;SDS011;592;48.764;9.174;2022-10-03T14:49:22;10.37;;;4.00;;
1204;SDS011;592;48.764;9.174;2022-10-03T14:51:54;9.37;;;3.93;;
1204;SDS011;592;48.764;9.174;2022-10-03T14:54:27;7.60;;;4.20;;
1204;SDS011;592;48.764;9.174;2022-10-03T14:57:01;8.63;;;4.20;;
1204;SDS011;592;48.764;9.174;2022-10-03T14:59:43;8.80;;;4.03;;
1204;SDS011;592;48.764;9.174;2022-10-03T15:02:22;7.80;;;3.80;;
1204;SDS011;592;48.764;9.174;2022-10-03T15:04:53;11.33;;;4.67;;
1204;SDS011;592;48.764;9.174;2022-10-03T15:07:30;7.77;;;4.40;;
1204;SDS011;592;48.764;9.174;2022-10-03T15:10:01;8.93;;;3.87;;
1204;SDS011;592;48.764;9.174;2022-10-03T15:12:30;8.47;;;3.97;;
1204;SDS011;592;48.764;9.174;2022-10-03T15:15:00;8.33;;;4.10;;
1204;SDS011;592;48.764;9.174;2022-10-03T15:17:30;8.47;;;5.30;;
1204;SDS011;592;48.764;9.174;2022-10-03T15:19:59;9.70;;;5.17;;
1204;SDS011;592;48.764;9.174;2022-10-03T15:22:29;9.47;;;4.20;;
1204;SDS011;592;48.764;9.174;2022-10-03T15:25:02;13.53;;;3.97;;
1204;SDS011;592;48.764;9.174;2022-10-03T15:27:32;11.60;;;4.90;;
1204;SDS011;592;48.764;9.174;2022-10-03T15:30:00;8.43;;;3.70;;
1204;SDS011;592;48.764;9.174;2022-10-03T15:32:32;6.83;;;4.17;;
1204;SDS011;592;48.764;9.174;2022-10-03T15:35:02;6.57;;;3.93;;
1204;SDS011;592;48.764;9.174;2022-10-03T15:37:30;7.17;;;3.53;;
1204;SDS011;592;48.764;9.174;2022-10-03T15:40:04;6.50;;;3.67;;
1204;SDS011;592;48.764;9.174;2022-10-03T15:42:42;7.70;;;3.97;;
1204;SDS011;592;48.764;9.174;2022-10-03T15:45:16;8.43;;;4.83;;
1204;SDS011;592;48.764;9.174;2022-10-03T15:47:46;8.23;;;3.87;;
1204;SDS011;592;48.764;9.174;2022-10-03T15:50:16;11.33;;;3.60;;
1204;SDS011;592;48.764;9.174;2022-10-03T15:52:45;7.30;;;3.50;;
1204;SDS011;592;48.764;9.174;2022-10-03T15:55:18;7.93;;;4.40;;
1204;SDS011;592;48.764;9.174;2022-10-03T15:57:51;7.70;;;4.03;;
1204;SDS011;592;48.764;9.174;2022-10-03T16:00:25;9.30;;;4.53;;
1204;SDS011;592;48.764;9.174;2022-10-03T16:02:55;7.70;;;5.10;;
1204;SDS011;592;48.764;9.174;2022-10-03T16:05:27;7.13;;;3.27;;
1204;SDS011;592;48.764;9.174;2022-10-03T16:07:56;7.20;;;3.80;;
1204;SDS011;592;48.764;9.174;2022-10-03T16:10:31;6.00;;;3.73;;
1204;SDS011;592;48.764;9.174;2022-10-03T16:13:04;10.40;;;3.40;;
1204;SDS011;592;48.764;9.174;2022-10-03T16:15:50;5.30;;;3.30;;
1204;SDS011;592;48.764;9.174;2022-10-03T16:18:41;7.57;;;4.10;;
1204;SDS011;592;48.764;9.174;2022-10-03T16:21:25;6.90;;;4.13;;
1204;SDS011;592;48.764;9.174;2022-10-03T16:24:15;9.70;;;4.70;;
1204;SDS011;592;48.764;9.174;2022-10-03T16:26:49;8.03;;;4.47;;
1204;SDS011;592;48.764;9.174;2022-10-03T16:29:21;10.77;;;4.67;;
1204;SDS011;592;48.764;9.174;2022-10-03T16:31:53;9.67;;;4.27;;
1204;SDS011;592;48.764;9.174;2022-10-03T16:34:24;9.10;;;4.60;;
1204;SDS011;592;48.764;9.174;2022-10-03T16:36:55;11.80;;;4.63;;
1204;SDS011;592;48.764;9.174;2022-10-03T16:39:23;16.00;;;5.53;;
1204;SDS011;592;48.764;9.174;2022-10-03T16:41:54;10.03;;;5.23;;
1204;SDS011;592;48.764;9.174;2022-10-03T16:44:22;8.50;;;4.50;;
1204;SDS011;592;48.764;9.174;2022-10-03T16:46:53;9.23;;;4.30;;
1204;SDS011;592;48.764;9.174;2022-10-03T16:49:29;11.93;;;5.60;;
1204;SDS011;592;48.764;9.174;2022-10-03T16:52:19;9.17;;;5.70;;
1204;SDS011;592;48.764;9.174;2022-10-03T16:54:54;15.57;;;6.40;;
1204;SDS011;592;48.764;9.174;2022-10-03T16:57:27;9.17;;;5.33;;
1204;SDS011;592;48.764;9.174;2022-10-03T16:59:58;9.50;;;6.10;;
1204;SDS011;592;48.764;9.174;2022-10-03T17:02:30;9.77;;;6.03;;
1204;SDS011;592;48.764;9.174;2022-10-03T17:04:59;10.07;;;5.03;;
1204;SDS011;592;48.764;9.174;2022-10-03T17:07:34;11.37;;;5.10;;
1204;SDS011;592;48.764;9.174;2022-10-03T17:10:03;19.10;;;7.97;;
1204;SDS011;592;48.764;9.174;2022-10-03T17:12:36;11.10;;;6.10;;
1204;SDS011;592;48.764;9.174;2022-10-03T17:15:06;7.33;;;4.10;;
1204;SDS011;592;48.764;9.174;2022-10-03T17:17:43;12.00;;;4.80;;
1204;SDS011;592;48.764;9.174;2022-10-03T17:20:14;9.73;;;4.27;;
1204;SDS011;592;48.764;9.174;2022-10-03T17:22:45;8.00;;;4.53;;
1204;SDS011;592;48.764;9.174;2022-10-03T17:25:31;9.80;;;4.43;;
1204;SDS011;592;48.764;9.174;2022-10-03T17:28:04;10.37;;;5.70;;
1204;SDS011;592;48.764;9.174;2022-10-03T17:30:34;11.47;;;5.47;;
1204;SDS011;592;48.764;9.174;2022-10-03T17:33:11;12.27;;;6.10;;
1204;SDS011;592;48.764;9.174;2022-10-03T17:35:47;10.13;;;5.80;;
1204;SDS011;592;48.764;9.174;2022-10-03T17:38:22;9.73;;;5.40;;
1204;SDS011;592;48.764;9.174;2022-10-03T17:41:02;13.37;;;5.10;;
1204;SDS011;592;48.764;9.174;2022-10-03T17:43:40;9.80;;;4.80;;
1204;SDS011;592;48.764;9.174;2022-10-03T17:46:12;12.53;;;6.07;;
1204;SDS011;592;48.764;9.174;2022-10-03T17:48:44;14.50;;;6.70;;
1204;SDS011;592;48.764;9.174;2022-10-03T17:51:27;12.97;;;6.03;;
1204;SDS011;592;48.764;9.174;2022-10-03T17:53:57;9.67;;;5.60;;
1204;SDS011;592;48.764;9.174;2022-10-03T17:56:26;7.60;;;5.40;;
1204;SDS011;592;48.764;9.174;2022-10-03T17:58:58;8.83;;;5.73;;
1204;SDS011;592;48.764;9.174;2022-10-03T18:01:31;9.50;;;4.83;;
1204;SDS011;592;48.764;9.174;2022-10-03T18:04:02;11.47;;;6.40;;
1204;SDS011;592;48.764;9.174;2022-10-03T18:06:36;12.80;;;6.17;;
1204;SDS011;592;48.764;9.174;2022-10-03T18:09:09;10.33;;;5.93;;
1204;SDS011;592;48.764;9.174;2022-10-03T18:11:46;11.80;;;6.90;;
1204;SDS011;592;48.764;9.174;2022-10-03T18:14:18;10.50;;;5.70;;
1204;SDS011;592;48.764;9.174;2022-10-03T18:16:59;8.93;;;5.47;;
1204;SDS011;592;48.764;9.174;2022-10-03T18:19:36;10.00;;;6.00;;
1204;SDS011;592;48.764;9.174;2022-10-03T18:22:14;13.10;;;5.83;;
1204;SDS011;592;48.764;9.174;2022-10-03T18:24:54;11.60;;;7.20;;
1204;SDS011;592;48.764;9.174;2022-10-03T18:27:33;15.70;;;7.40;;
1204;SDS011;592;48.764;9.174;2022-10-03T18:30:19;13.60;;;6.90;;
1204;SDS011;592;48.764;9.174;2022-10-03T18:32:50;10.57;;;6.27;;
1204;SDS011;592;48.764;9.174;2022-10-03T18:35:19;12.80;;;6.97;;
1204;SDS011;592;48.764;9.174;2022-10-03T18:37:52;10.10;;;5.40;;
1204;SDS011;592;48.764;9.174;2022-10-03T18:40:24;10.17;;;5.30;;
1204;SDS011;592;48.764;9.174;2022-10-03T18:42:52;12.90;;;5.93;;
1204;SDS011;592;48.764;9.174;2022-10-03T18:45:22;12.27;;;5.67;;
1204;SDS011;592;48.764;9.174;2022-10-03T18:47:53;11.17;;;6.50;;
1204;SDS011;592;48.764;9.174;2022-10-03T18:50:25;12.63;;;6.57;;
1204;SDS011;592;48.764;9.174;2022-10-03T18:52:56;9.60;;;5.73;;
1204;SDS011;592;48.764;9.174;2022-10-03T18:55:30;9.17;;;5.73;;
1204;SDS011;592;48.764;9.174;2022-10-03T18:58:05;12.93;;;6.77;;
1204;SDS011;592;48.764;9.174;2022-10-03T19:00:46;10.10;;;6.30;;
1204;SDS011;592;48.764;9.174;2022-10-03T19:03:18;11.80;;;6.73;;
1204;SDS011;592;48.764;9.174;2022-10-03T19:05:49;14.77;;;6.30;;
1204;SDS011;592;48.764;9.174;2022-10-03T19:08:21;8.83;;;5.30;;
1204;SDS011;592;48.764;9.174;2022-10-03T19:10:51;13.17;;;5.53;;
1204;SDS011;592;48.764;9.174;2022-10-03T19:13:27;13.23;;;7.20;;
1204;SDS011;592;48.764;9.174;2022-10-03T19:18:50;11.10;;;6.97;;
1204;SDS011;592;48.764;9.174;2022-10-03T19:21:26;14.53;;;8.03;;
1204;SDS011;592;48.764;9.174;2022-10-03T19:23:56;13.63;;;8.10;;
1204;SDS011;592;48.764;9.174;2022-10-03T19:26:26;9.03;;;5.83;;
1204;SDS011;592;48.764;9.174;2022-10-03T19:28:57;11.40;;;5.60;;
1204;SDS011;592;48.764;9.174;2022-10-03T19:31:32;13.63;;;5.77;;
1204;SDS011;592;48.764;9.174;2022-10-03T19:34:04;9.23;;;6.10;;
1204;SDS011;592;48.764;9.174;2022-10-03T19:36:39;11.30;;;6.77;;